createdAt,value
2018-11-07T00:00:23.149Z,12.55
2018-11-07T00:02:59.458Z,12.49
2018-11-07T00:05:36.422Z,12.50
2018-11-07T00:08:09.894Z,12.50
2018-11-07T00:10:43.031Z,12.50
2018-11-07T00:13:16.296Z,12.48
2018-11-07T00:15:56.420Z,12.46
2018-11-07T00:18:30.172Z,12.49
2018-11-07T00:21:02.899Z,12.50
2018-11-07T00:23:38.234Z,12.53
2018-11-07T00:26:12.185Z,12.52
2018-11-07T00:28:46.095Z,12.52
2018-11-07T00:31:24.808Z,12.51
2018-11-07T00:33:58.103Z,12.50
2018-11-07T00:36:30.876Z,12.46
2018-11-07T00:39:08.903Z,12.42
2018-11-07T00:41:51.101Z,12.34
2018-11-07T00:44:24.552Z,12.30
2018-11-07T00:46:58.872Z,12.32
2018-11-07T00:49:32.918Z,12.32
2018-11-07T00:52:12.285Z,12.33
2018-11-07T00:54:45.133Z,12.36
2018-11-07T00:57:18.846Z,12.42
2018-11-07T00:59:54.542Z,12.46
2018-11-07T01:02:28.406Z,12.48
2018-11-07T01:05:02.020Z,12.51
2018-11-07T01:07:35.783Z,12.53
2018-11-07T01:10:09.866Z,12.57
2018-11-07T01:12:42.878Z,12.60
2018-11-07T01:15:19.993Z,12.60
2018-11-07T01:17:52.493Z,12.58
2018-11-07T01:20:25.147Z,12.59
2018-11-07T01:22:58.069Z,12.63
2018-11-07T01:25:31.256Z,12.64
2018-11-07T01:28:09.205Z,12.62
2018-11-07T01:30:41.763Z,12.64
2018-11-07T01:33:17.205Z,12.67
2018-11-07T01:35:49.804Z,12.67
2018-11-07T01:38:22.931Z,12.71
2018-11-07T01:40:56.610Z,12.71
2018-11-07T01:43:30.193Z,12.66
2018-11-07T01:46:06.849Z,12.59
2018-11-07T01:48:39.749Z,12.57
2018-11-07T01:51:17.482Z,12.57
2018-11-07T01:53:57.053Z,12.52
2018-11-07T01:56:29.854Z,12.42
2018-11-07T01:59:02.864Z,12.29
2018-11-07T02:01:35.990Z,12.20
2018-11-07T02:04:08.653Z,12.13
2018-11-07T02:06:41.631Z,12.06
2018-11-07T02:09:14.172Z,11.98
2018-11-07T02:11:46.721Z,11.94
2018-11-07T02:14:21.717Z,11.91
2018-11-07T02:16:54.237Z,11.82
2018-11-07T02:19:27.874Z,11.77
2018-11-07T02:23:08.836Z,11.76
2018-11-07T02:25:58.721Z,11.73
2018-11-07T02:28:32.219Z,11.62
2018-11-07T02:31:07.393Z,11.53
2018-11-07T02:33:40.041Z,11.46
2018-11-07T02:36:13.919Z,11.44
2018-11-07T02:38:46.837Z,11.42
2018-11-07T02:41:21.405Z,11.43
2018-11-07T02:43:54.361Z,11.42
2018-11-07T02:46:28.344Z,11.38
2018-11-07T02:49:01.859Z,11.38
2018-11-07T02:51:35.669Z,11.31
2018-11-07T02:54:08.563Z,11.26
2018-11-07T02:56:43.028Z,11.26
2018-11-07T02:59:15.793Z,11.21
2018-11-07T03:02:08.244Z,11.22
2018-11-07T03:04:41.707Z,11.30
2018-11-07T03:07:14.573Z,11.33
2018-11-07T03:09:47.872Z,11.41
2018-11-07T03:12:20.353Z,11.48
2018-11-07T03:14:56.762Z,11.53
2018-11-07T03:17:30.828Z,11.50
2018-11-07T03:20:03.559Z,11.46
2018-11-07T03:22:37.462Z,11.42
2018-11-07T03:25:10.513Z,11.38
2018-11-07T03:27:43.009Z,11.33
2018-11-07T03:30:16.556Z,11.25
2018-11-07T03:32:49.055Z,11.18
2018-11-07T03:35:26.109Z,11.07
2018-11-07T03:37:58.725Z,10.97
2018-11-07T03:40:32.778Z,10.87
2018-11-07T03:43:05.745Z,10.79
2018-11-07T03:45:44.270Z,10.73
2018-11-07T03:48:25.981Z,10.62
2018-11-07T03:51:13.373Z,10.47
2018-11-07T03:53:46.513Z,10.33
2018-11-07T03:56:19.405Z,10.25
2018-11-07T03:58:59.401Z,10.18
2018-11-07T04:01:32.131Z,10.19
2018-11-07T04:04:04.814Z,10.27
2018-11-07T04:06:39.529Z,10.35
2018-11-07T04:09:13.894Z,10.34
2018-11-07T04:11:46.453Z,10.32
2018-11-07T04:14:19.874Z,10.32
2018-11-07T04:16:52.473Z,10.34
2018-11-07T04:19:25.058Z,10.39
2018-11-07T04:22:01.626Z,10.64
2018-11-07T04:24:34.983Z,10.88
2018-11-07T04:27:07.683Z,10.93
2018-11-07T04:29:40.564Z,10.78
2018-11-07T04:32:14.070Z,10.66
2018-11-07T04:34:46.761Z,10.55
2018-11-07T04:37:20.856Z,10.48
2018-11-07T04:39:53.392Z,10.46
2018-11-07T04:42:26.079Z,10.45
2018-11-07T04:44:59.113Z,10.49
2018-11-07T04:47:32.539Z,10.42
2018-11-07T04:50:09.855Z,10.45
2018-11-07T04:52:43.385Z,10.51
2018-11-07T04:55:15.993Z,10.61
2018-11-07T04:57:48.126Z,10.61
2018-11-07T05:00:21.056Z,10.62
2018-11-07T05:02:54.153Z,10.58
2018-11-07T05:05:27.129Z,10.56
2018-11-07T05:08:00.043Z,10.53
2018-11-07T05:10:33.255Z,10.45
2018-11-07T05:13:09.032Z,10.38
2018-11-07T05:15:45.985Z,10.39
2018-11-07T05:18:20.138Z,10.38
2018-11-07T05:20:53.207Z,10.42
2018-11-07T05:23:26.253Z,10.47
2018-11-07T05:25:59.785Z,10.56
2018-11-07T05:28:37.459Z,10.59
2018-11-07T05:31:10.014Z,10.64
2018-11-07T05:33:42.600Z,10.71
2018-11-07T05:36:16.105Z,10.76
2018-11-07T05:38:49.759Z,10.83
2018-11-07T05:41:24.526Z,10.86
2018-11-07T05:43:58.253Z,10.83
2018-11-07T05:46:31.701Z,10.70
2018-11-07T05:49:07.093Z,10.57
2018-11-07T05:51:42.862Z,10.49
2018-11-07T05:54:15.831Z,10.39
2018-11-07T05:56:48.311Z,10.39
2018-11-07T05:59:24.782Z,10.36
2018-11-07T06:01:58.980Z,10.31
2018-11-07T06:04:31.591Z,10.32
2018-11-07T06:07:08.452Z,10.32
2018-11-07T06:09:41.159Z,10.30
2018-11-07T06:12:14.793Z,10.25
2018-11-07T06:14:51.573Z,10.29
2018-11-07T06:17:24.626Z,10.26
2018-11-07T06:19:57.040Z,10.27
2018-11-07T06:22:34.083Z,10.25
2018-11-07T06:25:06.971Z,10.16
2018-11-07T06:27:41.730Z,10.12
2018-11-07T06:30:18.489Z,10.16
2018-11-07T06:32:51.503Z,10.13
2018-11-07T06:35:24.284Z,10.13
2018-11-07T06:37:57.428Z,10.11
2018-11-07T06:40:32.794Z,10.12
2018-11-07T06:43:07.390Z,10.14
2018-11-07T06:45:40.989Z,10.23
2018-11-07T06:48:15.154Z,10.23
2018-11-07T06:50:49.325Z,10.27
2018-11-07T06:53:21.952Z,10.28
2018-11-07T06:55:55.797Z,10.30
2018-11-07T06:58:29.175Z,10.26
2018-11-07T07:01:04.840Z,10.28
2018-11-07T07:03:38.752Z,10.28
2018-11-07T07:06:12.462Z,10.32
2018-11-07T07:08:47.372Z,10.37
2018-11-07T07:11:20.518Z,10.35
2018-11-07T07:13:53.014Z,10.31
2018-11-07T07:16:25.605Z,10.28
2018-11-07T07:19:00.455Z,10.23
2018-11-07T07:21:34.522Z,10.21
2018-11-07T07:24:09.542Z,10.21
2018-11-07T07:26:42.469Z,10.25
2018-11-07T07:29:17.655Z,10.26
2018-11-07T07:31:52.836Z,10.28
2018-11-07T07:34:25.615Z,10.41
2018-11-07T07:37:02.862Z,10.52
2018-11-07T07:39:38.059Z,10.59
2018-11-07T07:42:10.730Z,10.67
2018-11-07T07:44:44.454Z,10.77
2018-11-07T07:47:22.710Z,10.86
2018-11-07T07:49:56.691Z,10.91
2018-11-07T07:52:32.395Z,11.07
2018-11-07T07:55:06.943Z,11.16
2018-11-07T07:57:41.062Z,11.29
2018-11-07T08:00:21.574Z,11.37
2018-11-07T08:02:54.941Z,11.46
2018-11-07T08:05:30.193Z,11.50
2018-11-07T08:08:04.350Z,11.53
2018-11-07T08:10:55.937Z,11.55
2018-11-07T08:13:30.764Z,11.64
2018-11-07T08:16:05.883Z,11.69
2018-11-07T08:18:39.017Z,11.79
2018-11-07T08:21:12.740Z,11.84
2018-11-07T08:23:46.469Z,11.93
2018-11-07T08:26:20.071Z,11.96
2018-11-07T08:28:54.617Z,11.95
2018-11-07T08:31:31.186Z,11.99
2018-11-07T08:34:08.182Z,12.01
2018-11-07T08:36:41.712Z,11.98
2018-11-07T08:39:15.560Z,12.03
2018-11-07T08:41:48.437Z,12.13
2018-11-07T08:44:27.127Z,12.20
2018-11-07T08:47:01.843Z,12.28
2018-11-07T08:49:35.856Z,12.40
2018-11-07T08:52:11.887Z,12.46
2018-11-07T08:54:52.083Z,12.49
2018-11-07T08:57:27.732Z,12.55
2018-11-07T09:00:05.065Z,12.63
2018-11-07T09:02:44.366Z,12.69
2018-11-07T09:05:23.816Z,12.72
2018-11-07T09:08:00.418Z,12.74
2018-11-07T09:10:35.045Z,12.85
2018-11-07T09:13:09.105Z,12.97
2018-11-07T09:15:42.755Z,13.03
2018-11-07T09:18:15.963Z,13.08
2018-11-07T09:20:50.175Z,13.15
2018-11-07T09:23:25.542Z,13.23
2018-11-07T09:26:03.836Z,13.32
2018-11-07T09:28:39.351Z,13.39
2018-11-07T09:31:17.199Z,13.45
2018-11-07T09:33:57.879Z,13.51
2018-11-07T09:36:37.374Z,13.56
2018-11-07T09:39:10.873Z,13.61
2018-11-07T09:41:43.714Z,13.66
2018-11-07T09:44:18.393Z,13.81
2018-11-07T09:46:52.621Z,14.27
2018-11-07T09:49:27.975Z,14.99
2018-11-07T09:52:05.711Z,15.62
2018-11-07T09:54:44.816Z,16.03
2018-11-07T09:57:24.455Z,16.32
2018-11-07T10:00:01.309Z,16.59
2018-11-07T10:02:35.591Z,16.65
2018-11-07T10:05:10.799Z,16.73
2018-11-07T10:07:49.915Z,16.75
2018-11-07T10:10:52.913Z,16.74
2018-11-07T10:13:30.423Z,16.50
2018-11-07T10:16:03.105Z,16.28
2018-11-07T10:18:36.383Z,15.95
2018-11-07T10:21:09.811Z,15.62
2018-11-07T10:23:45.194Z,15.32
2018-11-07T10:26:18.659Z,15.17
2018-11-07T10:28:54.238Z,15.16
2018-11-07T10:31:27.866Z,15.52
2018-11-07T10:34:02.797Z,15.98
2018-11-07T10:36:36.459Z,16.53
2018-11-07T10:39:12.093Z,16.96
2018-11-07T10:41:52.800Z,17.27
2018-11-07T10:44:28.966Z,17.49
2018-11-07T10:47:02.253Z,17.77
2018-11-07T10:49:35.303Z,17.74
2018-11-07T10:52:09.359Z,17.41
2018-11-07T10:54:43.504Z,16.91
2018-11-07T10:57:17.338Z,16.88
2018-11-07T10:59:50.612Z,17.20
2018-11-07T11:02:30.666Z,17.65
2018-11-07T11:05:09.576Z,17.72
2018-11-07T11:07:43.142Z,17.47
2018-11-07T11:10:28.072Z,17.20
2018-11-07T11:13:02.610Z,17.13
2018-11-07T11:15:38.600Z,16.97
2018-11-07T11:18:13.523Z,16.82
2018-11-07T11:20:49.350Z,16.58
2018-11-07T11:23:28.520Z,16.82
2018-11-07T11:26:14.083Z,17.58
2018-11-07T11:28:56.759Z,18.35
2018-11-07T11:31:34.587Z,18.89
2018-11-07T11:34:11.555Z,19.36
2018-11-07T11:36:45.182Z,19.67
2018-11-07T11:39:18.190Z,19.76
2018-11-07T11:41:53.062Z,19.69
2018-11-07T11:44:28.588Z,19.58
2018-11-07T11:47:02.675Z,19.63
2018-11-07T11:49:39.130Z,19.76
2018-11-07T11:52:15.552Z,19.61
2018-11-07T11:54:50.023Z,19.54
2018-11-07T11:57:25.414Z,19.40
2018-11-07T11:59:59.158Z,19.34
2018-11-07T12:02:39.766Z,19.43
2018-11-07T12:05:24.752Z,19.10
2018-11-07T12:08:08.312Z,19.19
2018-11-07T12:10:50.639Z,19.26
2018-11-07T12:13:26.611Z,19.39
2018-11-07T12:16:10.794Z,19.36
2018-11-07T12:18:48.850Z,19.16
2018-11-07T12:21:26.472Z,18.98
2018-11-07T12:24:09.943Z,18.97
2018-11-07T12:26:48.470Z,18.99
2018-11-07T12:29:24.645Z,19.17
2018-11-07T12:32:00.608Z,19.44
2018-11-07T12:34:38.657Z,19.54
2018-11-07T12:37:18.483Z,19.27
2018-11-07T12:39:52.998Z,19.02
2018-11-07T12:42:32.400Z,18.83
2018-11-07T12:45:13.397Z,18.63
2018-11-07T12:47:52.141Z,18.43
2018-11-07T12:50:27.795Z,18.33
2018-11-07T12:53:05.697Z,18.31
2018-11-07T12:55:46.325Z,18.23
2018-11-07T12:58:20.953Z,18.15
2018-11-07T13:00:58.004Z,18.12
2018-11-07T13:03:38.755Z,18.24
2018-11-07T13:06:24.044Z,18.36
2018-11-07T13:09:02.155Z,18.50
2018-11-07T13:11:35.356Z,18.55
2018-11-07T13:14:13.792Z,18.48
2018-11-07T13:16:52.928Z,18.42
2018-11-07T13:19:30.550Z,18.31
2018-11-07T13:22:07.073Z,18.26
2018-11-07T13:24:43.019Z,18.26
2018-11-07T13:27:18.040Z,18.28
2018-11-07T13:30:04.014Z,18.19
2018-11-07T13:32:45.648Z,18.05
2018-11-07T13:35:24.080Z,17.89
2018-11-07T13:38:04.662Z,17.75
2018-11-07T13:40:39.049Z,17.65
2018-11-07T13:43:18.526Z,17.52
2018-11-07T13:45:54.000Z,17.41
2018-11-07T13:48:35.191Z,17.30
2018-11-07T13:51:12.704Z,17.21
2018-11-07T13:53:53.882Z,17.09
2018-11-07T13:56:41.271Z,17.01
2018-11-07T13:59:24.186Z,16.95
2018-11-07T14:02:03.342Z,16.88
2018-11-07T14:04:36.746Z,16.84
2018-11-07T14:07:11.290Z,16.79
2018-11-07T14:09:47.895Z,16.70
2018-11-07T14:12:38.115Z,16.62
2018-11-07T14:15:15.270Z,16.57
2018-11-07T14:17:49.409Z,16.50
2018-11-07T14:20:30.702Z,16.43
2018-11-07T14:23:08.709Z,16.36
2018-11-07T14:25:42.526Z,16.28
2018-11-07T14:28:17.556Z,16.21
2018-11-07T14:30:52.811Z,16.17
2018-11-07T14:33:30.277Z,16.14
2018-11-07T14:36:06.295Z,16.12
2018-11-07T14:38:46.391Z,16.09
2018-11-07T14:41:19.973Z,16.07
2018-11-07T14:43:58.823Z,16.03
2018-11-07T14:46:33.501Z,16.02
2018-11-07T14:49:08.739Z,16.00
2018-11-07T14:51:48.662Z,15.98
2018-11-07T14:54:26.760Z,15.95
2018-11-07T14:57:09.523Z,15.92
2018-11-07T14:59:48.397Z,15.90
2018-11-07T15:02:26.357Z,15.84
2018-11-07T15:05:05.850Z,15.78
2018-11-07T15:07:49.375Z,15.74
2018-11-07T15:10:30.825Z,15.65
2018-11-07T15:13:29.770Z,15.58
2018-11-07T15:16:17.834Z,15.53
2018-11-07T15:18:51.425Z,15.50
2018-11-07T15:21:24.874Z,15.49
2018-11-07T15:24:06.632Z,15.51
2018-11-07T15:26:43.590Z,15.52
2018-11-07T15:29:20.942Z,15.53
2018-11-07T15:32:00.873Z,15.54
2018-11-07T15:34:37.240Z,15.47
2018-11-07T15:37:10.831Z,15.26
2018-11-07T15:39:47.181Z,14.96
2018-11-07T15:42:23.668Z,14.60
2018-11-07T15:44:58.717Z,14.22
2018-11-07T15:47:41.491Z,13.86
2018-11-07T15:50:21.683Z,13.53
2018-11-07T15:52:55.989Z,13.35
2018-11-07T15:55:31.692Z,13.16
2018-11-07T15:59:14.487Z,12.92
2018-11-07T16:01:54.460Z,12.81
2018-11-07T16:04:30.675Z,12.74
2018-11-07T16:07:07.386Z,12.67
2018-11-07T16:09:42.667Z,12.61
2018-11-07T16:12:19.566Z,12.55
2018-11-07T16:15:20.633Z,12.52
2018-11-07T16:17:55.558Z,12.47
2018-11-07T16:20:29.196Z,12.45
2018-11-07T16:23:03.142Z,12.39
2018-11-07T16:25:44.733Z,12.35
2018-11-07T16:28:20.971Z,12.32
2018-11-07T16:30:53.511Z,12.30
2018-11-07T16:33:28.010Z,12.26
2018-11-07T16:36:04.714Z,12.23
2018-11-07T16:41:55.532Z,12.24
2018-11-07T16:44:31.591Z,12.23
2018-11-07T16:47:20.807Z,12.20
2018-11-07T16:49:59.093Z,12.21
2018-11-07T16:52:47.265Z,12.23
2018-11-07T16:55:26.590Z,12.27
2018-11-07T16:58:09.046Z,12.26
2018-11-07T17:00:47.895Z,12.24
2018-11-07T17:03:24.758Z,12.24
2018-11-07T17:06:00.547Z,12.25
2018-11-07T17:08:41.208Z,12.23
2018-11-07T17:11:16.531Z,12.25
2018-11-07T17:13:54.094Z,12.24
2018-11-07T17:16:27.293Z,12.23
2018-11-07T17:19:09.722Z,12.25
2018-11-07T17:21:49.879Z,12.30
2018-11-07T17:24:28.088Z,12.33
2018-11-07T17:27:03.486Z,12.37
2018-11-07T17:29:38.669Z,12.42
2018-11-07T17:32:12.065Z,12.45
2018-11-07T17:34:50.488Z,12.48
2018-11-07T17:37:27.695Z,12.48
2018-11-07T17:40:05.667Z,12.44
2018-11-07T17:42:43.827Z,12.40
2018-11-07T17:45:19.860Z,12.38
2018-11-07T17:47:58.923Z,12.42
2018-11-07T17:50:35.002Z,12.41
2018-11-07T17:53:17.388Z,12.42
2018-11-07T17:55:54.824Z,12.47
2018-11-07T17:58:31.435Z,12.53
2018-11-07T18:01:09.862Z,12.59
2018-11-07T18:03:47.722Z,12.57
2018-11-07T18:06:23.393Z,12.56
2018-11-07T18:09:04.615Z,12.55
2018-11-07T18:11:39.781Z,12.52
2018-11-07T18:14:19.870Z,12.55
2018-11-07T18:17:01.572Z,12.55
2018-11-07T18:19:38.892Z,12.57
2018-11-07T18:22:14.548Z,12.55
2018-11-07T18:24:52.225Z,12.53
2018-11-07T18:27:29.598Z,12.48
2018-11-07T18:30:09.494Z,12.46
2018-11-07T18:32:46.316Z,12.49
2018-11-07T18:35:20.349Z,12.51
2018-11-07T18:37:56.790Z,12.56
2018-11-07T18:40:33.312Z,12.67
2018-11-07T18:43:10.646Z,12.73
2018-11-07T18:45:49.442Z,12.74
2018-11-07T18:48:23.972Z,12.77
2018-11-07T18:50:58.521Z,12.73
2018-11-07T18:53:34.790Z,12.78
2018-11-07T18:56:11.997Z,12.77
2018-11-07T18:58:48.757Z,12.77
2018-11-07T19:01:26.447Z,12.73
2018-11-07T19:04:04.192Z,12.74
2018-11-07T19:06:43.091Z,12.75
2018-11-07T19:09:18.699Z,12.76
2018-11-07T19:12:06.798Z,12.81
2018-11-07T19:14:53.378Z,12.85
2018-11-07T19:17:58.443Z,12.88
2018-11-07T19:20:36.999Z,12.89
2018-11-07T19:23:15.885Z,12.93
2018-11-07T19:26:22.073Z,12.95
2018-11-07T19:29:12.417Z,12.97
2018-11-07T19:31:46.757Z,13.03
2018-11-07T19:34:40.823Z,13.10
2018-11-07T19:37:26.379Z,13.09
2018-11-07T19:40:04.361Z,13.09
2018-11-07T19:42:48.354Z,13.10
2018-11-07T19:45:50.628Z,13.09
2018-11-07T19:48:39.385Z,13.12
2018-11-07T19:51:30.526Z,13.11
2018-11-07T19:54:14.903Z,13.07
2018-11-07T19:57:05.203Z,13.12
2018-11-07T19:59:42.627Z,13.13
2018-11-07T20:02:18.692Z,13.11
2018-11-07T20:04:57.356Z,13.02
2018-11-07T20:07:41.550Z,12.98
2018-11-07T20:10:29.065Z,12.98
2018-11-07T20:13:05.899Z,12.95
2018-11-07T20:15:46.711Z,12.88
2018-11-07T20:18:25.238Z,12.89
2018-11-07T20:21:07.655Z,12.89
2018-11-07T20:23:55.414Z,12.89
2018-11-07T20:26:56.430Z,12.86
2018-11-07T20:29:33.485Z,12.84
2018-11-07T20:32:08.899Z,12.90
2018-11-07T20:34:43.748Z,12.98
2018-11-07T20:37:31.434Z,13.01
2018-11-07T20:40:19.195Z,13.09
2018-11-07T20:42:56.455Z,13.09
2018-11-07T20:45:35.771Z,13.03
2018-11-07T20:48:15.663Z,13.01
2018-11-07T20:50:54.322Z,12.97
2018-11-07T20:53:30.562Z,12.90
2018-11-07T20:56:11.358Z,12.86
2018-11-07T20:59:09.446Z,12.84
2018-11-07T21:01:46.305Z,12.85
2018-11-07T21:04:32.192Z,12.82
2018-11-07T21:07:08.299Z,12.77
2018-11-07T21:09:45.293Z,12.80
2018-11-07T21:12:34.043Z,12.82
2018-11-07T21:15:16.361Z,12.81
2018-11-07T21:17:52.591Z,12.82
2018-11-07T21:20:37.186Z,12.82
2018-11-07T21:23:13.446Z,12.85
2018-11-07T21:25:55.835Z,12.87
2018-11-07T21:28:40.203Z,12.85
2018-11-07T21:31:17.060Z,12.84
2018-11-07T21:34:08.262Z,12.83
2018-11-07T21:36:44.100Z,12.81
2018-11-07T21:39:22.447Z,12.80
2018-11-07T21:42:00.365Z,12.73
2018-11-07T21:44:34.775Z,12.72
2018-11-07T21:47:11.620Z,12.74
2018-11-07T21:49:46.050Z,12.70
2018-11-07T21:52:25.121Z,12.70
2018-11-07T21:55:00.802Z,12.69
2018-11-07T21:57:36.961Z,12.67
2018-11-07T22:00:22.695Z,12.67
2018-11-07T22:03:02.191Z,12.69
2018-11-07T22:05:36.303Z,12.71
2018-11-07T22:08:10.147Z,12.72
2018-11-07T22:10:50.321Z,12.72
2018-11-07T22:13:26.333Z,12.73
2018-11-07T22:16:07.428Z,12.72
2018-11-07T22:18:44.744Z,12.72
2018-11-07T22:21:23.408Z,12.69
2018-11-07T22:23:59.977Z,12.66
2018-11-07T22:26:43.762Z,12.69
2018-11-07T22:29:20.583Z,12.67
2018-11-07T22:31:55.038Z,12.61
2018-11-07T22:34:31.680Z,12.55
2018-11-07T22:37:09.471Z,12.51
2018-11-07T22:40:15.666Z,12.49
2018-11-07T22:42:51.407Z,12.50
2018-11-07T22:45:27.523Z,12.52
2018-11-07T22:48:09.156Z,12.52
2018-11-07T22:50:45.067Z,12.49
2018-11-07T22:53:21.639Z,12.44
2018-11-07T22:56:21.252Z,12.40
2018-11-07T22:59:09.843Z,12.39
2018-11-07T23:01:55.091Z,12.32
2018-11-07T23:04:29.215Z,12.31
2018-11-07T23:07:06.878Z,12.34
2018-11-07T23:09:44.217Z,12.36
2018-11-07T23:12:20.400Z,12.39
2018-11-07T23:14:55.454Z,12.40
2018-11-07T23:17:31.348Z,12.42
2018-11-07T23:20:07.454Z,12.42
2018-11-07T23:22:42.058Z,12.41
2018-11-07T23:25:16.483Z,12.40
2018-11-07T23:27:49.529Z,12.33
2018-11-07T23:30:22.360Z,12.33
2018-11-07T23:32:56.269Z,12.26
2018-11-07T23:35:32.057Z,12.19
2018-11-07T23:38:05.968Z,12.18
2018-11-07T23:40:42.963Z,12.16
2018-11-07T23:43:17.207Z,12.10
2018-11-07T23:45:51.337Z,12.06
2018-11-07T23:48:25.819Z,11.97
2018-11-07T23:50:59.322Z,11.93
2018-11-07T23:53:33.809Z,11.92
2018-11-07T23:56:08.376Z,11.91
2018-11-07T23:58:41.806Z,11.93
